Latest Weather Observations for Ben Nevis

IDV60801

Issued at 1:31 pm EDT Sunday 1 March 2015 (issued every 30 minutes, with the page automatically refreshed every 10 minutes)

About weather observations | Map of weather stations | Latest weather observations for VIC | Other Formats
Station Details ID: 079101 Name: BEN NEVIS Lat: -37.23 Lon: 143.20 Height: 875.0 m
Data from the previous 72 hours. | See also: Recent months at Ben Nevis
Date/Time
EDT
Temp
°C
App
Temp
°C
Dew
Point
Rel
Hum
%
Delta-T
°C
Wind Press
QNH
hPa
Press
MSL
hPa
Rain
since 9 am
mm
Dir
 
Spd
km/h
Gust
km/h
Spd
kts
Gust
kts
01/01:30pm 14.5 11.2 10.9 79 2.0 S 19 32 10 17 - - 0.4
01/01:00pm 13.2 8.8 9.1 76 2.2 SSW 22 39 12 21 - - 0.4
01/12:30pm 14.0 11.0 10.8 81 1.8 SSW 17 33 9 18 - - 0.4
01/12:00pm 12.6 10.9 12.4 99 0.1 SSW 13 26 7 14 - - 0.4
01/11:30am 10.9 8.7 10.7 99 0.1 SSW 13 20 7 11 - - 0.4
01/11:00am 11.0 9.2 10.8 99 0.1 S 11 19 6 10 - - 0.4
01/10:30am 9.9 6.7 9.8 99 0.1 SSW 17 32 9 17 - - 0.2
01/10:00am 9.9 6.1 9.8 99 0.1 SSW 20 33 11 18 - - 0.2
01/09:30am 9.7 6.4 9.6 99 0.1 SSW 17 33 9 18 - - 0.0
01/09:00am 9.5 6.2 9.4 99 0.1 SSW 17 28 9 15 - - 8.6
01/08:30am 9.4 5.5 9.3 99 0.1 SSW 20 37 11 20 - - 8.6
01/08:00am 9.2 5.2 9.1 99 0.1 SSW 20 32 11 17 - - 8.6
01/07:30am 9.4 5.5 9.3 99 0.1 SSW 20 33 11 18 - - 8.6
01/07:00am 9.2 4.8 9.1 99 0.1 SSW 22 35 12 19 - - 8.6
01/06:30am 9.3 4.6 9.2 99 0.1 SSW 24 39 13 21 - - 8.6
01/06:00am 9.4 4.7 9.3 99 0.1 SSW 24 44 13 24 - - 8.6
01/05:30am 9.3 4.2 9.2 99 0.1 SSW 26 41 14 22 - - 8.6
01/05:00am 9.3 3.4 9.2 99 0.1 SSW 30 46 16 25 - - 8.6
01/04:30am 9.4 3.2 9.3 99 0.1 SSW 32 46 17 25 - - 8.6
01/04:13am 9.4 3.0 9.3 99 0.1 SSW 33 52 18 28 - - 8.6
01/04:00am 9.4 3.0 9.3 99 0.1 SSW 33 48 18 26 - - 8.6
01/03:30am 9.6 2.5 9.5 99 0.1 SSW 37 57 20 31 - - 8.6
01/03:00am 9.7 1.5 9.6 99 0.1 SSW 43 65 23 35 - - 8.6
01/02:30am 9.8 1.4 9.7 99 0.1 SSW 44 63 24 34 - - 8.6
01/02:12am 10.0 1.3 9.9 99 0.1 SSW 46 67 25 36 - - 8.4
01/02:00am 10.0 0.9 9.9 99 0.1 SSW 48 63 26 34 - - 8.4
01/01:30am 10.5 4.0 10.3 99 0.1 SSW 35 54 19 29 - - 8.4
01/01:00am 11.4 4.4 11.2 99 0.1 SSW 39 65 21 35 - - 8.2
01/12:30am 12.1 5.7 11.9 99 0.1 SSW 37 59 20 32 - - 8.2
01/12:00am 13.1 6.6 12.9 99 0.1 SSW 39 57 21 31 - - 8.0
 
Date/Time
EDT
Temp
°C
App
Temp
°C
Dew
Point
Rel
Hum
%
Delta-T
°C
Wind Press
QNH
hPa
Press
MSL
hPa
Rain
since 9 am
mm
Dir
 
Spd
km/h
Gust
km/h
Spd
kts
Gust
kts
28/11:33pm 13.4 5.7 13.2 99 0.1 SSW 46 65 25 35 - - 7.8
28/11:30pm 13.6 6.3 13.4 99 0.1 SSW 44 61 24 33 - - 7.8
28/11:00pm 14.2 7.3 14.0 99 0.1 SSW 43 57 23 31 - - 7.8
28/10:30pm 14.6 9.4 14.4 99 0.1 SW 35 48 19 26 - - 7.8
28/10:00pm 14.8 11.6 14.3 97 0.3 WSW 24 41 13 22 - - 7.8
28/09:48pm 15.4 10.7 14.9 97 0.3 WSW 33 52 18 28 - - 7.4
28/09:30pm 15.5 9.7 15.0 97 0.3 WSW 39 50 21 27 - - 7.2
28/09:00pm 15.5 9.0 15.2 98 0.2 WSW 43 65 23 35 - - 6.6
28/08:30pm 15.7 8.0 15.4 98 0.2 WSW 50 70 27 38 - - 5.0
28/08:00pm 15.4 8.9 15.2 99 0.1 SW 43 67 23 36 - - 4.6
28/07:30pm 15.4 7.6 15.2 99 0.1 SSW 50 69 27 37 - - 3.8
28/07:00pm 16.3 8.1 15.2 93 0.7 SW 52 78 28 42 - - 2.4
28/06:48pm 19.4 12.9 14.0 71 3.2 SW 41 67 22 36 - - 0.2
28/06:37pm 23.7 20.5 11.4 46 7.2 SSW 19 46 10 25 - - 0.2
28/06:30pm 27.2 24.6 7.6 29 10.9 NE 11 20 6 11 - - 0.2
28/06:00pm 28.8 26.4 8.5 28 11.6 N 11 22 6 12 - - 0.2
28/05:30pm 29.5 26.3 8.5 27 12.0 N 15 35 8 19 - - 0.2
28/05:00pm 28.4 24.9 8.7 29 11.2 NNW 17 37 9 20 - - 0.2
28/04:30pm 29.2 26.3 8.3 27 11.9 N 13 28 7 15 - - 0.2
28/04:00pm 28.4 23.8 8.1 28 11.5 N 22 41 12 22 - - 0.2
28/03:30pm 27.8 23.6 7.6 28 11.3 N 19 37 10 20 - - 0.2
28/03:00pm 26.4 22.0 7.4 30 10.5 N 20 41 11 22 - - 0.2
28/02:30pm 27.8 23.6 8.1 29 11.1 N 20 35 11 19 - - 0.2
28/02:00pm 26.0 21.9 8.5 33 9.8 N 20 39 11 21 - - 0.2
28/01:30pm 26.4 22.8 9.7 35 9.6 N 19 35 10 19 - - 0.0
28/01:00pm 24.1 20.9 11.4 45 7.4 N 19 32 10 17 - - 0.0
28/12:30pm 22.0 18.6 10.5 48 6.6 N 19 32 10 17 - - 0.0
28/12:00pm 22.7 19.9 11.4 49 6.6 N 17 30 9 16 - - 0.0
28/11:30am 21.0 17.0 10.5 51 6.0 NNE 22 33 12 18 - - 0.0
28/11:00am 19.6 14.4 10.3 55 5.2 NNE 28 44 15 24 - - 0.0
28/10:30am 19.3 15.2 10.0 55 5.2 NNE 22 35 12 19 - - 0.0
28/10:00am 19.2 15.5 10.2 56 5.0 NNE 20 32 11 17 - - 0.0
28/09:30am 18.8 15.4 10.4 58 4.7 N 19 30 10 16 - - 0.0
28/09:00am 18.8 15.3 10.9 60 4.5 N 20 35 11 19 - - 0.4
28/08:30am 19.2 15.7 12.2 64 4.1 N 22 35 12 19 - - 0.4
28/08:00am 19.2 14.9 12.2 64 4.1 NNE 26 39 14 21 - - 0.4
28/07:30am 19.0 15.8 13.2 69 3.4 NNE 22 35 12 19 - - 0.4
28/07:00am 16.3 14.0 13.0 81 1.9 NNE 17 24 9 13 - - 0.4
28/06:30am 16.1 14.6 11.9 76 2.4 N 11 19 6 10 - - 0.0
28/06:00am 16.6 15.2 12.2 75 2.5 N 11 13 6 7 - - 0.0
28/05:30am 17.8 15.6 9.4 58 4.6 NNE 11 15 6 8 - - 0.0
28/05:00am 17.8 16.3 9.2 57 4.7 NNW 7 9 4 5 - - 0.0
28/04:30am 18.0 17.1 9.1 56 4.9 NW 4 7 2 4 - - 0.0
28/04:00am 18.3 17.1 10.2 59 4.5 WNW 7 13 4 7 - - 0.0
28/03:30am 19.1 17.5 11.4 61 4.4 WSW 11 19 6 10 - - 0.0
28/03:00am 18.7 15.4 10.8 60 4.5 S 19 33 10 18 - - 0.0
28/02:30am 18.6 16.4 9.4 55 5.1 W 11 17 6 9 - - 0.0
28/02:00am 18.8 15.6 9.8 56 5.0 WSW 17 22 9 12 - - 0.0
28/01:30am 19.0 15.8 8.6 51 5.6 W 15 19 8 10 - - 0.0
28/01:00am 19.0 16.3 8.9 52 5.5 W 13 19 7 10 - - 0.0
28/12:30am 18.9 16.0 8.0 49 5.9 W 13 17 7 9 - - 0.0
28/12:00am 18.7 16.4 7.5 48 5.9 W 9 13 5 7 - - 0.0
 
Date/Time
EDT
Temp
°C
App
Temp
°C
Dew
Point
Rel
Hum
%
Delta-T
°C
Wind Press
QNH
hPa
Press
MSL
hPa
Rain
since 9 am
mm
Dir
 
Spd
km/h
Gust
km/h
Spd
kts
Gust
kts
27/11:30pm 18.4 16.0 7.2 48 5.9 W 9 11 5 6 - - 0.0
27/11:00pm 18.4 16.4 6.9 47 6.0 WNW 7 11 4 6 - - 0.0
27/10:30pm 18.5 17.4 7.0 47 6.0 WSW 2 7 1 4 - - 0.0
27/10:00pm 18.4 17.7 6.9 47 6.0 CALM 0 0 0 0 - - 0.0
27/09:30pm 18.3 15.9 7.1 48 5.9 SSW 9 11 5 6 - - 0.0
27/09:00pm 18.1 15.8 7.5 50 5.6 WSW 9 13 5 7 - - 0.0
27/08:30pm 18.4 16.1 7.5 49 5.8 SW 9 13 5 7 - - 0.0
27/08:00pm 19.1 16.1 6.2 43 6.7 SW 11 15 6 8 - - 0.0
27/07:30pm 19.4 16.0 5.8 41 7.0 SSW 13 17 7 9 - - 0.0
27/07:00pm 20.0 16.6 6.0 40 7.3 SSW 13 19 7 10 - - 0.0
27/06:30pm 20.9 17.5 6.1 38 7.8 SSW 13 17 7 9 - - 0.0
27/06:00pm 22.2 18.8 6.0 35 8.5 SSW 13 20 7 11 - - 0.0
27/05:30pm 21.9 18.0 5.3 34 8.6 S 15 22 8 12 - - 0.0
27/05:00pm 22.7 19.5 5.2 32 9.1 SSW 11 15 6 8 - - 0.0
27/04:30pm 22.1 19.3 5.1 33 8.8 SSW 9 19 5 10 - - 0.0
27/04:00pm 22.6 18.9 4.6 31 9.3 SSW 13 20 7 11 - - 0.0
27/03:30pm 23.3 19.9 6.1 33 9.1 S 13 24 7 13 - - 0.0
27/03:00pm 23.0 19.9 5.4 32 9.2 SSW 11 17 6 9 - - 0.0
27/02:30pm 22.5 19.6 4.5 31 9.3 SSW 9 20 5 11 - - 0.0
27/02:00pm 21.1 18.5 6.2 38 7.8 SSW 9 17 5 9 - - 0.0
27/01:30pm 21.6 18.7 6.7 38 7.9 SW 11 20 6 11 - - 0.0
27/01:00pm 20.3 17.4 4.4 35 8.0 S 9 13 5 7 - - 0.0
27/12:30pm 20.8 19.0 8.1 44 6.9 SSE 7 11 4 6 - - 0.0
27/12:00pm 18.9 16.7 6.1 43 6.6 S 7 11 4 6 - - 0.0
27/11:30am 18.1 16.2 7.5 50 5.6 SSW 7 9 4 5 - - 0.0
27/11:00am 17.5 16.4 10.1 62 4.1 S 6 9 3 5 - - 0.0
27/10:30am 16.2 15.3 10.7 70 3.1 NW 6 9 3 5 - - 0.0
27/10:00am 15.1 13.6 9.0 67 3.3 E 7 13 4 7 - - 0.0
27/09:30am 15.2 13.8 9.6 69 3.0 ESE 7 11 4 6 - - 0.0
27/09:00am 13.9 12.4 8.3 69 2.9 ESE 6 7 3 4 - - 0.2
27/08:30am 13.0 11.5 9.1 77 2.1 ESE 7 13 4 7 - - 0.2
27/08:00am 11.4 11.1 8.8 84 1.4 CALM 0 6 0 3 - - 0.2
27/07:30am 10.7 8.3 8.8 88 1.0 SE 11 17 6 9 - - 0.2
27/07:00am 10.4 7.3 9.0 91 0.7 SSE 15 20 8 11 - - 0.0
27/06:30am 10.6 7.2 9.0 90 0.8 S 17 24 9 13 - - 0.0
27/06:00am 10.2 7.5 9.1 93 0.6 SSW 13 20 7 11 - - 0.0
27/05:30am 10.0 7.7 8.9 93 0.6 SSW 11 15 6 8 - - 0.0
27/05:00am 10.8 9.0 9.4 91 0.7 S 9 13 5 7 - - 0.0
27/04:30am 10.5 8.1 10.0 97 0.3 S 13 17 7 9 - - 0.0
27/04:00am 10.5 7.4 10.2 98 0.2 SSW 17 20 9 11 - - 0.0
27/03:30am 10.4 8.0 10.1 98 0.2 SSW 13 17 7 9 - - 0.0
27/03:00am 10.8 8.1 10.5 98 0.2 S 15 26 8 14 - - 0.0
27/02:30am 11.0 7.6 10.7 98 0.2 SSW 19 28 10 15 - - 0.0
27/02:00am 11.1 8.1 10.5 96 0.3 SSW 17 24 9 13 - - 0.0
27/01:30am 11.6 9.2 10.0 90 0.9 SSW 13 19 7 10 - - 0.0
27/01:00am 11.8 9.1 10.2 90 0.9 SSW 15 24 8 13 - - 0.0
27/12:30am 11.4 8.0 10.5 94 0.5 SSW 19 24 10 13 - - 0.0
27/12:00am 11.7 8.6 10.3 91 0.8 SSW 17 24 9 13 - - 0.0
 
Date/Time
EDT
Temp
°C
App
Temp
°C
Dew
Point
Rel
Hum
%
Delta-T
°C
Wind Press
QNH
hPa
Press
MSL
hPa
Rain
since 9 am
mm
Dir
 
Spd
km/h
Gust
km/h
Spd
kts
Gust
kts
26/11:30pm 12.3 7.1 10.2 87 1.1 SSW 28 37 15 20 - - 0.0
26/11:00pm 12.8 7.2 10.3 85 1.4 SSW 30 39 16 21 - - 0.0
26/10:30pm 13.1 8.2 9.9 81 1.7 SSW 26 33 14 18 - - 0.0
26/10:00pm 13.7 9.1 9.6 76 2.2 S 24 30 13 16 - - 0.0
26/09:30pm 14.4 9.4 9.6 73 2.6 SSW 26 35 14 19 - - 0.0
26/09:00pm 15.2 10.6 9.8 70 2.9 S 24 33 13 18 - - 0.0
26/08:30pm 16.1 10.8 9.8 66 3.4 S 28 39 15 21 - - 0.0
26/08:00pm 17.3 13.6 10.0 62 4.0 SSW 20 32 11 17 - - 0.0
26/07:30pm 18.7 15.0 10.0 57 4.8 SSW 20 30 11 16 - - 0.0
26/07:00pm 20.2 17.0 10.0 52 5.7 SW 17 30 9 16 - - 0.0
26/06:30pm 20.8 17.4 9.1 47 6.5 WSW 17 30 9 16 - - 0.0
26/06:00pm 22.8 19.0 9.2 42 7.6 SW 19 35 10 19 - - 0.0
26/05:30pm 24.5 21.6 9.6 39 8.5 WSW 15 32 8 17 - - 0.0
26/05:00pm 24.5 21.5 10.8 42 8.0 SW 17 26 9 14 - - 0.0
26/04:30pm 24.5 21.2 10.8 42 8.0 WSW 19 37 10 20 - - 0.0
26/04:00pm 24.5 21.9 12.1 46 7.4 WSW 17 33 9 18 - - 0.0
26/03:30pm 22.9 19.7 11.3 48 6.7 WSW 19 30 10 16 - - 0.0
26/03:00pm 22.5 19.9 10.6 47 6.8 SW 15 28 8 15 - - 0.0
26/02:30pm 24.0 20.9 11.7 46 7.2 SW 19 33 10 18 - - 0.0
26/02:00pm 22.0 18.7 10.8 49 6.4 SSW 19 30 10 16 - - 0.0

Other Formats:

Comma delimited format used in spreadsheet applications
http://www.bom.gov.au/fwo/IDV60801/IDV60801.94835.axf

JavaScript Object Notation format (JSON) in row-major order
http://www.bom.gov.au/fwo/IDV60801/IDV60801.94835.json